createdAt,value
2023-03-21T00:01:54.049Z,55.3
2023-03-21T00:05:57.909Z,42.8
2023-03-21T00:12:06.870Z,57.1
2023-03-21T00:14:08.826Z,47.5
2023-03-21T00:18:12.792Z,45.9
2023-03-21T00:20:14.759Z,39.4
2023-03-21T00:22:19.792Z,58.8
2023-03-21T00:24:21.766Z,56.6
2023-03-21T00:28:46.597Z,60.4
2023-03-21T00:30:48.617Z,51.9
2023-03-21T00:32:56.577Z,45.1
2023-03-21T00:35:11.969Z,46.6
2023-03-21T00:36:57.628Z,52.2
2023-03-21T00:38:59.540Z,37.7
2023-03-21T00:41:07.509Z,45.9
2023-03-21T00:43:03.534Z,49.4
2023-03-21T00:45:05.503Z,51.2
2023-03-21T00:47:08.197Z,36.4
2023-03-21T00:49:12.541Z,48.4
2023-03-21T00:51:14.496Z,47.6
2023-03-21T00:53:16.495Z,48.1
2023-03-21T00:55:18.452Z,45.2
2023-03-21T00:57:29.362Z,57.3
2023-03-21T00:59:22.414Z,53.8
2023-03-21T01:01:24.381Z,53.9
2023-03-21T01:03:29.426Z,38.6
2023-03-21T01:05:31.417Z,45.4
2023-03-21T01:07:33.390Z,48.7
2023-03-21T01:09:35.384Z,49.6
2023-03-21T01:11:37.328Z,52.1
2023-03-21T01:15:41.305Z,41.5
2023-03-21T01:17:46.324Z,41.9
2023-03-21T01:19:51.998Z,44.8
2023-03-21T01:21:50.291Z,40
2023-03-21T01:22:52.786Z,40.3
2023-03-21T01:25:00.606Z,36.7
2023-03-21T01:26:56.763Z,43.7
2023-03-21T01:28:58.746Z,49.1
2023-03-21T01:31:03.747Z,55.7
2023-03-21T01:35:07.712Z,47.4
2023-03-21T01:37:09.681Z,48.4
2023-03-21T01:39:11.676Z,55.3
2023-03-21T01:43:15.619Z,54.4
2023-03-21T01:45:20.652Z,48.9
2023-03-21T01:47:22.650Z,45.3
2023-03-21T01:49:24.642Z,41.1
2023-03-21T01:51:26.586Z,40.2
2023-03-21T01:53:28.627Z,42.6
2023-03-21T01:55:32.094Z,45.9
2023-03-21T01:57:42.405Z,47
2023-03-21T02:01:41.057Z,57.9
2023-03-21T02:07:46.993Z,59.8
2023-03-21T02:11:50.963Z,62.9
2023-03-21T02:15:57.942Z,52.4
2023-03-21T02:17:59.936Z,50.3
2023-03-21T02:19:02.449Z,57.1
2023-03-21T02:21:04.408Z,52.6
2023-03-21T02:23:06.378Z,65.5
2023-03-21T02:25:16.341Z,62.9
2023-03-21T02:27:13.400Z,61.3
2023-03-21T02:29:15.461Z,54.8
2023-03-21T02:31:17.428Z,64.1
2023-03-21T02:33:19.311Z,59.5
2023-03-21T02:39:25.248Z,69.1
2023-03-21T02:41:38.276Z,61.1
2023-03-21T02:43:32.259Z,62.4
2023-03-21T02:45:34.247Z,69.9
2023-03-21T02:47:36.204Z,70.1
2023-03-21T02:49:38.207Z,65
2023-03-21T02:51:40.159Z,66.5
2023-03-21T02:55:47.180Z,74.8
2023-03-21T02:57:49.156Z,77.9
2023-03-21T02:59:55.517Z,73.2
2023-03-21T03:01:53.212Z,68.9
2023-03-21T03:05:57.050Z,74.6
2023-03-21T03:14:31.509Z,72.8
2023-03-21T03:15:10.540Z,64.6
2023-03-21T03:17:12.495Z,74.1
2023-03-21T03:21:16.473Z,69.2
2023-03-21T03:37:38.595Z,56.6
2023-03-21T03:45:46.387Z,67.1
2023-03-21T03:47:56.849Z,54
2023-03-21T03:49:50.362Z,63.1
2023-03-21T03:53:57.344Z,58.2
2023-03-21T03:55:59.328Z,68.8
2023-03-21T04:10:16.230Z,52
2023-03-21T04:12:32.955Z,57
2023-03-21T04:14:44.076Z,58.6
2023-03-21T04:16:36.936Z,65.3
2023-03-21T04:20:43.964Z,45.6
2023-03-21T04:28:51.821Z,63.4
2023-03-21T04:31:02.320Z,66
2023-03-21T04:33:03.190Z,51.7
2023-03-21T04:35:00.840Z,40.2
2023-03-21T04:37:02.826Z,55.6
2023-03-21T04:39:04.781Z,51.5
2023-03-21T04:41:06.765Z,62.7
2023-03-21T04:43:08.764Z,49
2023-03-21T04:45:10.720Z,47.2
2023-03-21T04:47:15.773Z,61.8
2023-03-21T04:49:17.745Z,48.3
2023-03-21T04:51:19.699Z,51.1
2023-03-21T04:53:21.705Z,73.5
2023-03-21T04:55:23.685Z,53.4
2023-03-21T04:57:25.778Z,54.8
2023-03-21T04:59:27.627Z,49.3
2023-03-21T05:01:32.774Z,51.7
2023-03-21T05:03:34.692Z,52.8
2023-03-21T05:05:36.944Z,70.1
2023-03-21T05:06:39.119Z,78.2
2023-03-21T05:08:41.068Z,65.3
2023-03-21T05:10:43.048Z,65.4
2023-03-21T05:12:45.026Z,74.7
2023-03-21T05:14:50.035Z,68.8
2023-03-21T05:16:52.088Z,61.8
2023-03-21T05:18:53.986Z,67.5
2023-03-21T05:20:55.969Z,66.6
2023-03-21T05:22:57.941Z,55.5
2023-03-21T05:37:14.839Z,48.1
2023-03-21T05:43:23.816Z,50.5
2023-03-21T05:45:25.822Z,60.1
2023-03-21T05:47:27.800Z,48.8
2023-03-21T05:53:33.690Z,48.9
2023-03-21T05:55:35.930Z,49.5
2023-03-21T06:02:47.277Z,51.8
2023-03-21T06:04:49.171Z,61.4
2023-03-21T06:06:51.137Z,56.5
2023-03-21T06:08:53.144Z,48.4
2023-03-21T06:10:58.157Z,55
2023-03-21T06:13:00.152Z,52.5
2023-03-21T06:15:02.127Z,53.1
2023-03-21T06:17:04.086Z,67.7
2023-03-21T06:19:06.065Z,54.9
2023-03-21T06:21:08.052Z,48.7
2023-03-21T06:23:10.014Z,55
2023-03-21T06:25:15.075Z,49
2023-03-21T06:27:17.019Z,63.4
2023-03-21T06:29:19.005Z,57.6
2023-03-21T06:35:24.995Z,63.5
2023-03-21T06:43:35.904Z,79.5
2023-03-21T06:45:38.116Z,59.1
2023-03-21T06:47:39.882Z,48.4
2023-03-21T06:49:41.832Z,52.4
2023-03-21T06:51:43.797Z,44.1
2023-03-21T06:53:48.822Z,46.3
2023-03-21T06:55:50.807Z,46
2023-03-21T06:57:52.782Z,50.4
2023-03-21T06:58:55.290Z,41.3
2023-03-21T07:02:59.294Z,49
2023-03-21T07:07:06.275Z,51.6
2023-03-21T07:09:08.238Z,47.6
2023-03-21T07:13:12.201Z,46.3
2023-03-21T07:15:14.154Z,50.9
2023-03-21T07:17:16.151Z,49.2
2023-03-21T07:19:18.104Z,58.2
2023-03-21T07:21:23.151Z,55.6
2023-03-21T07:23:25.129Z,43.8
2023-03-21T07:25:27.100Z,54.3
2023-03-21T07:27:29.076Z,46.1
2023-03-21T07:29:31.042Z,52.9
2023-03-21T07:31:33.086Z,59
2023-03-21T07:33:34.994Z,47.1
2023-03-21T07:35:40.737Z,41.3
2023-03-21T07:37:42.002Z,51.8
2023-03-21T07:39:43.970Z,52.1
2023-03-21T07:45:49.928Z,40.1
2023-03-21T07:47:53.439Z,56.3
2023-03-21T07:56:24.959Z,40.4
2023-03-21T07:58:26.924Z,47.5
2023-03-21T08:02:34.000Z,46.8
2023-03-21T08:04:35.912Z,42
2023-03-21T08:06:37.914Z,33.2
2023-03-21T08:08:39.871Z,33.8
2023-03-21T08:10:41.862Z,27.8
2023-03-21T08:12:43.834Z,41.9
2023-03-21T08:20:54.845Z,36.5
2023-03-21T08:22:56.806Z,40.8
2023-03-21T08:24:59.494Z,31.7
2023-03-21T08:27:00.786Z,45.5
2023-03-21T08:31:07.823Z,46.4
2023-03-21T08:33:09.807Z,30.7
2023-03-21T08:35:11.753Z,28.5
2023-03-21T08:37:13.763Z,36.8
2023-03-21T08:39:15.733Z,46.4
2023-03-21T08:43:19.724Z,41.4
2023-03-21T08:45:24.710Z,38.6
2023-03-21T08:52:33.168Z,43.2
2023-03-21T08:54:35.159Z,31.6
2023-03-21T08:56:37.532Z,40.9
2023-03-21T09:00:44.136Z,26.3
2023-03-21T09:02:46.126Z,28.9
2023-03-21T09:04:48.116Z,28.7
2023-03-21T09:06:50.088Z,39.3
2023-03-21T09:10:54.043Z,30.7
2023-03-21T09:12:59.092Z,26.9
2023-03-21T09:15:01.058Z,34.1
2023-03-21T09:17:03.086Z,39.7
2023-03-21T09:19:05.050Z,35.4
2023-03-21T09:21:07.036Z,42.8
2023-03-21T09:25:10.958Z,25.6
2023-03-21T09:27:16.040Z,37.4
2023-03-21T09:29:17.998Z,40.5
2023-03-21T09:33:21.975Z,27.3
2023-03-21T09:35:23.945Z,24.3
2023-03-21T09:37:25.962Z,40.9
2023-03-21T09:41:32.957Z,33.7
2023-03-21T09:43:34.934Z,22.7
2023-03-21T09:48:50.646Z,24.1
2023-03-21T09:50:43.430Z,11.6
2023-03-21T09:52:45.380Z,25.3
2023-03-21T09:56:52.407Z,17.2
2023-03-21T10:00:56.438Z,22.1
2023-03-21T10:02:58.341Z,16.4
2023-03-21T10:07:07.118Z,20
2023-03-21T10:09:07.555Z,29.7
2023-03-21T10:11:09.335Z,29.3
2023-03-21T10:13:11.343Z,23.3
2023-03-21T10:15:13.313Z,20.7
2023-03-21T10:17:15.290Z,30.2
2023-03-21T10:19:17.364Z,24
2023-03-21T10:23:24.295Z,13.6
2023-03-21T10:25:26.300Z,25.6
2023-03-21T10:27:28.275Z,24.8
2023-03-21T10:31:32.309Z,17.2
2023-03-21T10:33:34.228Z,26.8
2023-03-21T10:35:36.489Z,28.3
2023-03-21T10:37:41.261Z,25.3
2023-03-21T10:39:43.225Z,23.1
2023-03-21T10:41:45.198Z,14
2023-03-21T10:42:47.718Z,32.7
2023-03-21T10:44:49.697Z,18.6
2023-03-21T10:46:51.862Z,15.6
2023-03-21T10:48:53.817Z,21.9
2023-03-21T10:55:02.694Z,17.4
2023-03-21T10:57:04.642Z,22.7
2023-03-21T10:59:06.643Z,13.6
2023-03-21T11:01:08.692Z,22.3
2023-03-21T11:03:10.605Z,18.2
2023-03-21T11:09:19.605Z,15.5
2023-03-21T11:11:21.590Z,14.1
2023-03-21T11:13:23.587Z,21.8
2023-03-21T11:15:25.592Z,30
2023-03-21T11:17:27.538Z,20.1
2023-03-21T11:19:32.585Z,12.3
2023-03-21T11:21:34.584Z,30.2
2023-03-21T11:23:36.551Z,14.6
2023-03-21T11:25:38.781Z,14
2023-03-21T11:27:40.524Z,14.8
2023-03-21T11:29:42.488Z,20.6
2023-03-21T11:31:44.489Z,21.4
2023-03-21T11:33:49.528Z,37.7
2023-03-21T11:35:51.513Z,16.7
2023-03-21T11:37:53.496Z,21.8
2023-03-21T11:40:16.399Z,19.4
2023-03-21T11:42:18.319Z,10.4
2023-03-21T11:44:20.297Z,15.7
2023-03-21T11:48:27.382Z,13.9
2023-03-21T11:52:32.534Z,10.9
2023-03-21T11:54:33.258Z,14.8
2023-03-21T11:56:35.241Z,11.2
2023-03-21T11:58:37.256Z,28.2
2023-03-21T12:00:42.294Z,25.8
2023-03-21T12:04:46.332Z,13.3
2023-03-21T12:06:48.228Z,35.3
2023-03-21T12:10:52.182Z,21.9
2023-03-21T12:12:54.151Z,13
2023-03-21T12:17:01.201Z,25.5
2023-03-21T12:19:03.165Z,19.3
2023-03-21T12:21:05.157Z,13.8
2023-03-21T12:23:07.199Z,26.5
2023-03-21T12:25:09.128Z,19.2
2023-03-21T12:29:16.092Z,26.9
2023-03-21T12:34:22.547Z,20
2023-03-21T12:38:26.497Z,52.9
2023-03-21T12:42:33.546Z,29.6
2023-03-21T12:44:35.520Z,13
2023-03-21T12:50:41.468Z,16.1
2023-03-21T12:52:43.481Z,11.7
2023-03-21T12:54:45.445Z,13.2
2023-03-21T12:56:50.524Z,76.3
2023-03-21T12:58:52.498Z,11.9
2023-03-21T13:00:54.545Z,18.2
2023-03-21T13:09:02.437Z,13.4
2023-03-21T13:13:09.506Z,24.1
2023-03-21T13:15:18.499Z,36.5
2023-03-21T13:17:13.512Z,26.3
2023-03-21T13:19:15.455Z,8
2023-03-21T13:25:24.508Z,14.3
2023-03-21T13:30:30.990Z,13.8
2023-03-21T13:32:33.021Z,12.2
2023-03-21T13:34:34.912Z,11.4
2023-03-21T13:40:45.419Z,11.1
2023-03-21T13:42:47.385Z,14.8
2023-03-21T13:44:50.382Z,18.4
2023-03-21T13:46:54.256Z,12.3
2023-03-21T13:48:58.922Z,14.4
2023-03-21T13:50:55.342Z,14.1
2023-03-21T13:53:00.379Z,9.6
2023-03-21T13:55:02.347Z,23.4
2023-03-21T13:57:04.346Z,10.5
2023-03-21T13:59:06.316Z,7.6
2023-03-21T14:01:08.405Z,8.4
2023-03-21T14:03:10.276Z,13.4
2023-03-21T14:05:12.287Z,20.6
2023-03-21T14:07:17.378Z,10.2
2023-03-21T14:09:19.275Z,8.7
2023-03-21T14:11:21.269Z,10.9
2023-03-21T14:13:23.225Z,7.7
2023-03-21T14:15:25.233Z,12.1
2023-03-21T14:17:27.205Z,18.4
2023-03-21T14:19:29.156Z,10.1
2023-03-21T14:21:34.255Z,22.7
2023-03-21T14:23:36.196Z,7
2023-03-21T14:25:46.631Z,11.7
2023-03-21T14:28:42.777Z,11
2023-03-21T14:30:44.693Z,8.7
2023-03-21T14:32:46.628Z,13.4
2023-03-21T14:34:51.702Z,11.1
2023-03-21T14:36:58.130Z,7.2
2023-03-21T14:45:01.579Z,8.5
2023-03-21T14:47:03.627Z,12.7
2023-03-21T14:49:08.602Z,16.5
2023-03-21T14:51:10.606Z,12.1
2023-03-21T14:53:12.587Z,7
2023-03-21T14:55:14.529Z,13.4
2023-03-21T14:59:18.492Z,5.3
2023-03-21T15:03:25.530Z,18.4
2023-03-21T15:05:27.503Z,9.2
2023-03-21T15:07:29.509Z,9.6
2023-03-21T15:09:31.426Z,11
2023-03-21T15:11:33.401Z,19.2
2023-03-21T15:13:35.367Z,10.9
2023-03-21T15:17:42.367Z,12.5
2023-03-21T15:26:04.977Z,7.5
2023-03-21T15:28:06.943Z,19.5
2023-03-21T15:30:11.977Z,17.4
2023-03-21T15:32:13.956Z,12.9
2023-03-21T15:34:15.968Z,15.7
2023-03-21T15:36:17.982Z,13.3
2023-03-21T15:38:19.905Z,11.7
2023-03-21T15:40:21.894Z,9.9
2023-03-21T15:42:23.883Z,10.9
2023-03-21T15:48:32.906Z,15.2
2023-03-21T15:50:34.887Z,21.4
2023-03-21T15:52:36.876Z,15.3
2023-03-21T15:54:38.868Z,9.3
2023-03-21T15:56:40.846Z,13.7
2023-03-21T15:58:45.884Z,15.7
2023-03-21T16:00:47.919Z,21.4
2023-03-21T16:02:49.883Z,10.9
2023-03-21T16:04:51.852Z,9.5
2023-03-21T16:06:53.866Z,11.5
2023-03-21T16:08:55.840Z,25.2
2023-03-21T16:10:57.845Z,10.5
2023-03-21T16:13:02.878Z,14.2
2023-03-21T16:15:04.874Z,22.6
2023-03-21T16:17:06.892Z,11.1
2023-03-21T16:18:11.284Z,9.9
2023-03-21T16:20:11.360Z,9.2
2023-03-21T16:22:13.364Z,16.5
2023-03-21T16:24:15.360Z,8.8
2023-03-21T16:28:22.405Z,20.7
2023-03-21T16:30:24.386Z,18.6
2023-03-21T16:32:26.381Z,9
2023-03-21T16:34:28.353Z,14.6
2023-03-21T16:40:37.617Z,8.7
2023-03-21T16:44:41.382Z,24.9
2023-03-21T16:48:45.329Z,19.6
2023-03-21T16:54:54.367Z,21.1
2023-03-21T17:03:02.346Z,16.5
2023-03-21T17:05:05.026Z,11.1
2023-03-21T17:07:06.302Z,26.2
2023-03-21T17:09:11.353Z,17.5
2023-03-21T17:13:15.376Z,42.1
2023-03-21T17:14:17.898Z,16.4
2023-03-21T17:18:21.849Z,11.6
2023-03-21T17:20:23.841Z,17.1
2023-03-21T17:32:38.892Z,21.4
2023-03-21T17:34:40.894Z,23.2
2023-03-21T17:36:45.954Z,26.2
2023-03-21T17:38:47.943Z,31.8
2023-03-21T17:40:50.586Z,18.7
2023-03-21T17:42:51.956Z,29.1
2023-03-21T17:44:53.916Z,32.8
2023-03-21T17:46:55.928Z,30.9
2023-03-21T17:48:57.930Z,38.4
2023-03-21T17:51:02.988Z,25.7
2023-03-21T17:53:04.987Z,30.3
2023-03-21T17:59:10.948Z,21.4
2023-03-21T18:01:12.945Z,27.7
2023-03-21T18:03:14.956Z,24.1
2023-03-21T18:05:20.001Z,27
2023-03-21T18:07:54.445Z,32.8
2023-03-21T18:09:24.582Z,26.6
2023-03-21T18:10:27.110Z,28.5
2023-03-21T18:12:29.124Z,21.8
2023-03-21T18:14:31.090Z,23.2
2023-03-21T18:16:33.268Z,21.7
2023-03-21T18:18:38.139Z,28.9
2023-03-21T18:20:51.666Z,26.3
2023-03-21T18:22:42.121Z,21.8
2023-03-21T18:24:44.114Z,21
2023-03-21T18:29:24.510Z,27.4
2023-03-21T18:31:09.530Z,27.6
2023-03-21T18:32:55.156Z,29.5
2023-03-21T18:34:57.146Z,30.8
2023-03-21T18:36:59.124Z,30.7
2023-03-21T18:39:01.118Z,33.5
2023-03-21T18:41:03.143Z,34.1
2023-03-21T18:45:07.152Z,18.4
2023-03-21T18:47:12.249Z,24.5
2023-03-21T18:49:59.000Z,27.7
2023-03-21T18:51:16.145Z,24.6
2023-03-21T18:53:18.133Z,21.3
2023-03-21T18:55:20.805Z,32.4
2023-03-21T18:57:37.951Z,19.4
2023-03-21T18:59:24.117Z,21.8
2023-03-21T19:01:29.289Z,19.6
2023-03-21T19:03:36.676Z,15.9
2023-03-21T19:05:33.150Z,14
2023-03-21T19:07:55.825Z,29.8
2023-03-21T19:10:16.583Z,24.2
2023-03-21T19:11:59.803Z,15.9
2023-03-21T19:14:04.880Z,16.3
2023-03-21T19:16:10.662Z,16
2023-03-21T19:18:37.839Z,22.4
2023-03-21T19:20:10.828Z,24.9
2023-03-21T19:22:12.847Z,23.1
2023-03-21T19:24:28.141Z,19.8
2023-03-21T19:26:16.824Z,17.6
2023-03-21T19:28:21.841Z,21.9
2023-03-21T19:30:25.366Z,26.8
2023-03-21T19:32:27.330Z,25.4
2023-03-21T19:38:33.326Z,14.1
2023-03-21T19:40:35.266Z,16
2023-03-21T19:42:40.345Z,13.8
2023-03-21T19:44:42.326Z,15.5
2023-03-21T19:46:44.284Z,17.2
2023-03-21T19:48:46.293Z,18.2
2023-03-21T19:51:20.145Z,15.8
2023-03-21T19:52:50.268Z,24.7
2023-03-21T19:54:52.267Z,19.1
2023-03-21T19:56:57.323Z,23.9
2023-03-21T20:01:01.317Z,17.3
2023-03-21T20:02:27.156Z,16.3
2023-03-21T20:04:05.789Z,16.3
2023-03-21T20:06:07.762Z,28.7
2023-03-21T20:08:11.003Z,13.5
2023-03-21T20:10:14.806Z,18.3
2023-03-21T20:12:16.769Z,15.5
2023-03-21T20:14:18.770Z,17.2
2023-03-21T20:16:20.873Z,19.8
2023-03-21T20:18:22.751Z,13.1
2023-03-21T20:20:24.752Z,15.6
2023-03-21T20:22:46.081Z,15.2
2023-03-21T20:24:31.747Z,13.5
2023-03-21T20:26:34.007Z,13.3
2023-03-21T20:28:38.138Z,17.1
2023-03-21T20:30:37.982Z,17.4
2023-03-21T20:38:48.743Z,18.9
2023-03-21T20:40:50.707Z,15.4
2023-03-21T20:42:52.697Z,15.9
2023-03-21T20:44:59.271Z,17.7
2023-03-21T20:46:56.827Z,19.4
2023-03-21T20:51:01.829Z,16.9
2023-03-21T20:55:07.668Z,17.1
2023-03-21T20:58:30.994Z,21.9
2023-03-21T21:00:14.186Z,12.7
2023-03-21T21:02:16.160Z,16.7
2023-03-21T21:04:19.181Z,25.3
2023-03-21T21:06:23.238Z,14.4
2023-03-21T21:08:25.156Z,22.4
2023-03-21T21:10:27.135Z,24.9
2023-03-21T21:14:31.137Z,13.9
2023-03-21T21:16:33.070Z,13.9
2023-03-21T21:18:35.079Z,12.8
2023-03-21T21:20:40.433Z,20.4
2023-03-21T21:24:44.073Z,14.3
2023-03-21T21:34:57.071Z,26.1
2023-03-21T21:41:03.010Z,16
2023-03-21T21:43:04.981Z,24.4
2023-03-21T21:49:14.009Z,18.9
2023-03-21T21:51:15.966Z,15.5
2023-03-21T21:54:20.468Z,18.5
2023-03-21T21:56:22.445Z,19.6
2023-03-21T21:58:24.429Z,17.2
2023-03-21T22:00:26.421Z,25.9
2023-03-21T22:02:31.431Z,16
2023-03-21T22:04:33.416Z,19.4
2023-03-21T22:06:35.385Z,30
2023-03-21T22:08:37.392Z,16.8
2023-03-21T22:10:39.669Z,17.9
2023-03-21T22:12:41.350Z,19.8
2023-03-21T22:14:43.297Z,23.4
2023-03-21T22:16:48.434Z,21.6
2023-03-21T22:20:52.305Z,30.5
2023-03-21T22:22:54.292Z,23.8
2023-03-21T22:31:05.276Z,31.7
2023-03-21T22:33:09.999Z,17.7
2023-03-21T22:37:11.292Z,27.3
2023-03-21T22:39:13.193Z,23.7
2023-03-21T22:41:15.188Z,24.4
2023-03-21T22:43:17.154Z,25.5
2023-03-21T22:45:22.227Z,19.6
2023-03-21T22:47:24.159Z,17.2
2023-03-21T22:51:48.783Z,34
2023-03-21T22:53:50.759Z,24.9
2023-03-21T22:55:52.757Z,32.2
2023-03-21T22:57:57.775Z,31.7
2023-03-21T22:59:59.745Z,21.3
2023-03-21T23:02:01.739Z,22.8
2023-03-21T23:04:03.915Z,22.6
2023-03-21T23:06:05.681Z,20.6
2023-03-21T23:08:07.683Z,19.5
2023-03-21T23:12:14.720Z,20.6
2023-03-21T23:14:16.699Z,20.3
2023-03-21T23:16:18.716Z,21.6
2023-03-21T23:20:22.663Z,24.1
2023-03-21T23:44:52.564Z,18.8
2023-03-21T23:45:55.085Z,21.2
2023-03-21T23:47:57.107Z,21.8
2023-03-21T23:49:59.021Z,14.1
2023-03-21T23:52:00.988Z,25.2
2023-03-21T23:54:06.893Z,17.7
2023-03-21T23:56:08.014Z,14.7
2023-03-21T23:58:09.984Z,17.5
